Time;durP1;ratioP1;P1;durP2;ratioP2;P2;SDS_P1;SDS_P2;PMS_P1;PMS_P2;Temp;Humidity;BMP_temperature;BMP_pressure;BME280_temperature;BME280_humidity;BME280_pressure;Samples;Min_cycle;Max_cycle;Signal;HPM_P1;HPM_P2
2023/12/18 00:01:25;;;;;;;14.17;13.67;;;4.80;99.90;;;;;;5066994;28;20462;-69
2023/12/18 00:03:55;;;;;;;14.30;13.80;;;4.80;99.90;;;;;;5063453;28;20945;-69
2023/12/18 00:06:22;;;;;;;14.80;14.30;;;4.60;99.90;;;;;;5070230;28;20455;-68
2023/12/18 00:08:50;;;;;;;14.93;14.43;;;4.60;99.90;;;;;;5055930;28;20465;-69
2023/12/18 00:11:17;;;;;;;14.47;13.97;;;4.50;99.90;;;;;;5060787;28;20500;-70
2023/12/18 00:13:45;;;;;;;14.50;14.00;;;4.40;99.90;;;;;;5063624;28;20950;-70
2023/12/18 00:16:11;;;;;;;14.30;13.80;;;4.40;99.90;;;;;;5067466;28;20484;-69
2023/12/18 00:18:40;;;;;;;14.77;14.27;;;4.20;99.90;;;;;;5068389;28;20448;-70
2023/12/18 00:21:09;;;;;;;14.77;14.27;;;4.10;99.90;;;;;;5062438;28;20501;-70
2023/12/18 00:23:35;;;;;;;14.63;14.13;;;4.10;99.90;;;;;;5067962;28;21070;-70
2023/12/18 00:26:02;;;;;;;14.33;13.83;;;4.10;99.90;;;;;;5061257;28;20997;-70
2023/12/18 00:28:29;;;;;;;14.50;14.00;;;4.00;99.90;;;;;;5061332;28;20874;-70
2023/12/18 00:30:57;;;;;;;14.80;14.30;;;3.80;99.90;;;;;;5065972;28;20488;-70
2023/12/18 00:33:24;;;;;;;14.77;14.27;;;3.70;99.90;;;;;;5063334;28;20459;-70
2023/12/18 00:35:51;;;;;;;14.40;13.90;;;3.50;99.90;;;;;;5068899;28;20570;-70
2023/12/18 00:38:19;;;;;;;14.87;14.37;;;3.40;99.90;;;;;;5062893;28;20464;-70
2023/12/18 00:40:47;;;;;;;15.70;15.10;;;3.20;99.90;;;;;;5059775;28;20459;-69
2023/12/18 00:43:15;;;;;;;15.20;14.60;;;3.30;99.90;;;;;;5069071;28;20464;-70
2023/12/18 00:45:42;;;;;;;14.13;13.63;;;3.30;99.90;;;;;;5061481;28;21011;-70
2023/12/18 00:48:09;;;;;;;14.40;13.90;;;3.20;99.90;;;;;;5068794;28;20453;-69
2023/12/18 00:50:36;;;;;;;15.50;14.90;;;3.10;99.90;;;;;;5055836;28;20468;-70
2023/12/18 00:53:03;;;;;;;14.70;14.20;;;3.20;99.90;;;;;;5062964;28;20460;-70
2023/12/18 00:55:31;;;;;;;14.53;14.03;;;3.30;99.90;;;;;;5063671;28;20460;-69
2023/12/18 00:57:59;;;;;;;13.93;13.43;;;3.20;99.90;;;;;;5057625;28;20460;-69
2023/12/18 01:00:25;;;;;;;14.80;14.30;;;3.30;99.90;;;;;;5050042;28;20943;-69
2023/12/18 01:02:52;;;;;;;14.30;13.80;;;3.20;99.90;;;;;;5064106;28;20943;-69
2023/12/18 01:05:20;;;;;;;14.57;14.07;;;3.20;99.90;;;;;;5064126;28;20462;-69
2023/12/18 01:07:48;;;;;;;14.90;14.40;;;3.20;99.90;;;;;;5066576;28;20481;-69
2023/12/18 01:10:14;;;;;;;14.43;13.93;;;3.20;99.90;;;;;;5066585;28;21051;-69
2023/12/18 01:12:42;;;;;;;14.60;14.10;;;3.20;99.90;;;;;;5065624;28;20814;-69
2023/12/18 01:15:10;;;;;;;14.77;14.27;;;3.30;99.90;;;;;;5059052;28;20527;-69
2023/12/18 01:17:36;;;;;;;14.33;13.83;;;3.30;99.90;;;;;;5065065;28;21002;-69
2023/12/18 01:20:04;;;;;;;13.70;13.20;;;3.30;99.90;;;;;;5068469;28;20470;-69
2023/12/18 01:22:31;;;;;;;14.40;13.90;;;3.30;99.90;;;;;;5059821;28;20457;-69
2023/12/18 01:24:58;;;;;;;14.80;14.30;;;3.20;99.90;;;;;;5064292;28;20483;-69
2023/12/18 01:27:25;;;;;;;14.60;14.10;;;3.20;99.90;;;;;;5067948;28;20469;-69
2023/12/18 01:29:54;;;;;;;14.73;14.23;;;3.10;99.90;;;;;;5063827;28;20451;-69
2023/12/18 01:32:20;;;;;;;14.70;14.20;;;3.10;99.90;;;;;;5062596;28;20456;-69
2023/12/18 01:34:48;;;;;;;14.40;13.90;;;3.10;99.90;;;;;;5060769;28;20449;-70
2023/12/18 01:37:15;;;;;;;14.60;14.10;;;3.10;99.90;;;;;;5067690;28;20992;-69
2023/12/18 01:39:42;;;;;;;14.30;13.80;;;3.10;99.90;;;;;;5058072;28;20456;-69
2023/12/18 01:42:11;;;;;;;14.20;13.70;;;3.20;99.90;;;;;;5063655;28;20455;-69
2023/12/18 01:44:38;;;;;;;14.63;14.13;;;3.00;99.90;;;;;;5064348;28;20455;-69
2023/12/18 01:47:07;;;;;;;14.33;13.83;;;2.80;99.90;;;;;;5057821;28;20816;-69
2023/12/18 01:49:34;;;;;;;15.17;14.57;;;2.70;99.90;;;;;;5056325;28;20474;-69
2023/12/18 01:52:02;;;;;;;15.23;14.63;;;2.50;99.90;;;;;;5060252;28;20450;-69
2023/12/18 01:54:29;;;;;;;15.27;14.67;;;2.50;99.90;;;;;;5063857;28;20461;-70
2023/12/18 01:56:59;;;;;;;14.53;14.03;;;2.40;99.90;;;;;;5062076;28;20551;-69
2023/12/18 01:59:26;;;;;;;14.90;14.40;;;2.40;99.90;;;;;;5067908;28;20457;-69
2023/12/18 02:01:53;;;;;;;15.30;14.70;;;2.30;99.90;;;;;;5067709;28;20503;-69
2023/12/18 02:04:22;;;;;;;14.90;14.40;;;2.50;99.90;;;;;;5058512;28;20486;-70
2023/12/18 02:06:50;;;;;;;14.23;13.73;;;2.60;99.90;;;;;;5059732;28;20493;-69
2023/12/18 02:09:18;;;;;;;14.40;13.90;;;2.70;99.90;;;;;;5056440;28;20877;-69
2023/12/18 02:11:45;;;;;;;14.90;14.40;;;2.70;99.90;;;;;;5057949;28;20803;-69
2023/12/18 02:14:13;;;;;;;14.33;13.83;;;2.70;99.90;;;;;;5064478;28;20481;-69
2023/12/18 02:16:41;;;;;;;14.43;13.93;;;2.90;99.90;;;;;;5063547;28;20473;-70
2023/12/18 02:19:25;;;;;;;14.60;14.10;;;3.10;99.90;;;;;;5056756;28;20460;-69
2023/12/18 02:21:54;;;;;;;14.30;13.80;;;3.30;99.90;;;;;;5054473;28;20909;-69
2023/12/18 02:24:23;;;;;;;14.20;13.70;;;3.40;99.90;;;;;;5067289;28;20990;-69
2023/12/18 02:26:50;;;;;;;14.50;14.00;;;3.40;99.90;;;;;;5054647;28;20461;-69
2023/12/18 02:29:18;;;;;;;14.30;13.80;;;3.40;99.90;;;;;;5062717;28;20470;-69
2023/12/18 02:31:47;;;;;;;14.17;13.67;;;3.30;99.90;;;;;;5063165;28;20508;-69
2023/12/18 02:34:14;;;;;;;14.57;14.07;;;3.20;99.90;;;;;;5066970;28;20447;-69
2023/12/18 02:36:40;;;;;;;14.30;13.80;;;3.20;99.90;;;;;;5059019;28;20974;-69
2023/12/18 02:39:07;;;;;;;14.60;14.10;;;3.00;99.90;;;;;;5062448;28;20458;-69
2023/12/18 02:41:35;;;;;;;14.40;13.90;;;2.80;99.90;;;;;;5061501;28;20463;-69
2023/12/18 02:44:02;;;;;;;14.33;13.83;;;2.60;99.90;;;;;;5065655;28;20451;-68
2023/12/18 02:46:28;;;;;;;15.27;14.67;;;2.40;99.90;;;;;;5058931;28;20458;-69
2023/12/18 02:48:55;;;;;;;15.00;14.50;;;2.30;99.90;;;;;;5059139;28;20880;-69
2023/12/18 02:51:22;;;;;;;14.93;14.43;;;2.20;99.90;;;;;;5057244;28;20930;-69
2023/12/18 02:53:49;;;;;;;14.67;14.17;;;2.20;99.90;;;;;;5055100;28;20486;-71
2023/12/18 02:56:16;;;;;;;14.50;14.00;;;2.20;99.90;;;;;;5064854;28;20975;-69
2023/12/18 02:58:44;;;;;;;15.70;15.10;;;2.10;99.90;;;;;;5060804;28;20446;-68
2023/12/18 03:01:11;;;;;;;16.10;15.50;;;2.00;99.90;;;;;;5059021;28;20464;-69
2023/12/18 03:03:38;;;;;;;15.57;14.97;;;2.00;99.90;;;;;;5069308;28;20459;-69
2023/12/18 03:06:05;;;;;;;15.53;14.93;;;2.10;99.90;;;;;;5067212;28;20475;-69
2023/12/18 03:08:32;;;;;;;15.47;14.87;;;2.20;99.90;;;;;;5067030;28;21177;-68
2023/12/18 03:10:59;;;;;;;14.93;14.37;;;2.20;99.90;;;;;;5068929;28;20805;-68
2023/12/18 03:13:26;;;;;;;15.03;14.47;;;2.20;99.90;;;;;;5061463;28;20475;-68
2023/12/18 03:15:55;;;;;;;15.17;14.60;;;2.20;99.90;;;;;;5070236;28;20451;-69
2023/12/18 03:18:22;;;;;;;15.50;14.90;;;2.20;99.90;;;;;;5056088;28;20489;-69
2023/12/18 03:20:49;;;;;;;15.30;14.70;;;2.20;99.90;;;;;;5060089;28;20453;-68
2023/12/18 03:23:16;;;;;;;15.27;14.67;;;2.10;99.90;;;;;;5061000;28;20457;-68
2023/12/18 03:25:43;;;;;;;14.93;14.43;;;2.00;99.90;;;;;;5062602;28;20468;-68
2023/12/18 03:28:12;;;;;;;14.80;14.30;;;2.10;99.90;;;;;;5069927;28;20460;-69
2023/12/18 03:30:38;;;;;;;15.20;14.60;;;2.00;99.90;;;;;;5069763;28;20535;-68
2023/12/18 03:33:07;;;;;;;15.27;14.67;;;2.00;99.90;;;;;;5070109;28;20469;-69
2023/12/18 03:35:35;;;;;;;14.70;14.20;;;2.00;99.90;;;;;;5064299;28;20465;-69
2023/12/18 03:38:02;;;;;;;14.30;13.80;;;2.10;99.90;;;;;;5061121;28;20989;-68
2023/12/18 03:40:30;;;;;;;13.30;12.90;;;2.20;99.90;;;;;;5061744;28;20466;-68
2023/12/18 03:42:57;;;;;;;13.47;13.07;;;2.30;99.90;;;;;;5063248;28;20487;-69
2023/12/18 03:45:23;;;;;;;13.60;13.20;;;2.30;99.90;;;;;;5064723;28;20463;-69
2023/12/18 03:47:50;;;;;;;13.13;12.73;;;2.30;99.90;;;;;;5069940;28;20845;-69
2023/12/18 03:50:18;;;;;;;13.27;12.87;;;2.40;99.90;;;;;;5060579;28;20465;-68
2023/12/18 03:52:45;;;;;;;13.10;12.70;;;2.40;99.90;;;;;;5069171;28;20821;-69
2023/12/18 03:55:12;;;;;;;13.07;12.67;;;2.40;99.90;;;;;;5060557;28;20467;-69
2023/12/18 03:57:39;;;;;;;12.27;11.97;;;2.50;99.90;;;;;;5061594;28;21041;-69
2023/12/18 04:00:08;;;;;;;12.50;12.10;;;2.60;99.90;;;;;;5061641;28;20854;-69
2023/12/18 04:02:35;;;;;;;12.47;12.10;;;2.60;99.90;;;;;;5070267;28;20875;-69
2023/12/18 04:05:01;;;;;;;12.17;11.87;;;2.70;99.90;;;;;;5055963;28;20462;-70
2023/12/18 04:07:30;;;;;;;12.30;12.00;;;2.70;99.90;;;;;;5059903;28;20461;-70
2023/12/18 04:09:57;;;;;;;11.63;11.33;;;2.60;99.90;;;;;;5061429;28;21116;-69
2023/12/18 04:12:23;;;;;;;12.10;11.80;;;2.60;99.90;;;;;;5069848;28;20460;-70
2023/12/18 04:14:50;;;;;;;12.57;12.17;;;2.60;99.90;;;;;;5062054;28;20541;-69
2023/12/18 04:17:17;;;;;;;12.73;12.33;;;2.50;99.90;;;;;;5058005;28;20547;-69
2023/12/18 04:19:44;;;;;;;13.30;12.90;;;2.50;99.90;;;;;;5069235;28;20457;-69
2023/12/18 04:22:11;;;;;;;13.20;12.80;;;2.50;99.90;;;;;;5060046;28;20975;-69
2023/12/18 04:24:39;;;;;;;13.43;13.03;;;2.40;99.90;;;;;;5065859;28;20602;-69
2023/12/18 04:27:06;;;;;;;13.70;13.30;;;2.40;99.90;;;;;;5062953;28;20463;-69
2023/12/18 04:29:33;;;;;;;13.47;13.07;;;2.30;99.90;;;;;;5061419;28;20492;-69
2023/12/18 04:32:00;;;;;;;12.63;12.23;;;2.40;99.90;;;;;;5064430;28;20487;-70
2023/12/18 04:34:28;;;;;;;12.80;12.40;;;2.40;99.90;;;;;;5062191;28;20939;-69
2023/12/18 04:36:55;;;;;;;12.67;12.27;;;2.40;99.90;;;;;;5068383;28;20843;-70
2023/12/18 04:39:22;;;;;;;13.00;12.60;;;2.30;99.90;;;;;;5063586;28;20474;-70
2023/12/18 04:41:51;;;;;;;12.70;12.30;;;2.30;99.90;;;;;;5053523;28;20876;-70
2023/12/18 04:44:18;;;;;;;13.50;13.10;;;2.10;99.90;;;;;;5065317;28;20486;-70
2023/12/18 04:46:46;;;;;;;13.90;13.40;;;2.00;99.90;;;;;;5060780;28;20465;-69
2023/12/18 04:49:13;;;;;;;13.27;12.87;;;2.10;99.90;;;;;;5067943;28;20944;-70
2023/12/18 04:51:40;;;;;;;13.63;13.23;;;2.10;99.90;;;;;;5056151;28;20542;-69
2023/12/18 04:54:07;;;;;;;13.50;13.10;;;2.10;99.90;;;;;;5056795;28;20459;-69
2023/12/18 04:56:34;;;;;;;13.83;13.33;;;2.10;99.90;;;;;;5061972;28;20460;-69
2023/12/18 04:59:02;;;;;;;13.40;13.00;;;1.90;99.90;;;;;;5056496;28;20884;-69
2023/12/18 05:01:29;;;;;;;13.67;13.20;;;1.70;99.90;;;;;;5063629;28;21104;-69
2023/12/18 05:03:56;;;;;;;14.30;13.80;;;1.50;99.90;;;;;;5068206;28;20469;-70
2023/12/18 05:06:24;;;;;;;14.60;14.10;;;1.40;99.90;;;;;;5056380;28;20707;-70
2023/12/18 05:08:51;;;;;;;14.57;14.07;;;1.30;99.90;;;;;;5057114;28;20505;-69
2023/12/18 05:11:18;;;;;;;14.40;13.90;;;1.30;99.90;;;;;;5066930;28;20800;-70
2023/12/18 05:13:46;;;;;;;14.70;14.20;;;1.20;99.90;;;;;;5068887;28;20456;-69
2023/12/18 05:16:15;;;;;;;14.97;14.40;;;1.20;99.90;;;;;;5066050;28;20465;-69
2023/12/18 05:18:42;;;;;;;14.80;14.20;;;1.10;99.90;;;;;;5057092;28;21009;-70
2023/12/18 05:21:11;;;;;;;14.83;14.23;;;1.00;99.90;;;;;;5062970;28;21036;-70
2023/12/18 05:23:38;;;;;;;15.03;14.43;;;1.00;99.90;;;;;;5064363;28;20487;-69
2023/12/18 05:26:05;;;;;;;14.87;14.27;;;1.00;99.90;;;;;;5068491;28;20452;-69
2023/12/18 05:28:33;;;;;;;14.80;14.30;;;1.00;99.90;;;;;;5060523;28;20838;-70
2023/12/18 05:31:00;;;;;;;15.30;14.70;;;1.10;99.90;;;;;;5059921;28;20494;-69
2023/12/18 05:33:28;;;;;;;16.20;15.57;;;1.10;99.90;;;;;;5055367;28;20463;-70
2023/12/18 05:35:55;;;;;;;14.67;14.17;;;1.20;99.90;;;;;;5058812;28;20474;-70
2023/12/18 05:38:22;;;;;;;15.50;14.90;;;1.30;99.90;;;;;;5063760;28;20859;-69
2023/12/18 05:40:49;;;;;;;15.10;14.50;;;1.30;99.90;;;;;;5067034;28;20454;-69
2023/12/18 05:43:16;;;;;;;14.70;14.20;;;1.40;99.90;;;;;;5055306;28;20514;-70
2023/12/18 05:45:43;;;;;;;14.90;14.33;;;1.30;99.90;;;;;;5060777;28;20469;-70
2023/12/18 05:48:09;;;;;;;14.47;13.97;;;1.30;99.90;;;;;;5063276;28;20521;-69
2023/12/18 05:50:37;;;;;;;15.00;14.40;;;1.30;99.90;;;;;;5060345;28;20500;-69
2023/12/18 05:53:05;;;;;;;14.87;14.27;;;1.30;99.90;;;;;;5067726;28;20466;-70
2023/12/18 05:55:32;;;;;;;14.80;14.23;;;1.30;99.90;;;;;;5054662;28;20470;-70
2023/12/18 05:57:59;;;;;;;15.47;14.87;;;1.20;99.90;;;;;;5064827;28;20981;-69
2023/12/18 06:00:26;;;;;;;15.43;14.83;;;1.30;99.90;;;;;;5065372;28;20821;-70
2023/12/18 06:02:53;;;;;;;15.53;14.93;;;1.20;99.90;;;;;;5067043;28;20526;-70
2023/12/18 06:05:20;;;;;;;15.10;14.50;;;1.10;99.90;;;;;;5051797;28;20871;-70
2023/12/18 06:07:48;;;;;;;15.30;14.70;;;1.00;99.90;;;;;;5064323;28;20501;-70
2023/12/18 06:10:15;;;;;;;15.37;14.77;;;1.00;99.90;;;;;;5067213;28;20447;-69
2023/12/18 06:12:44;;;;;;;15.13;14.53;;;1.00;99.90;;;;;;5066765;28;20813;-70
2023/12/18 06:15:11;;;;;;;15.60;15.00;;;1.00;99.90;;;;;;5058438;28;20463;-70
2023/12/18 06:17:38;;;;;;;16.20;15.50;;;1.10;99.90;;;;;;5065678;28;20501;-69
2023/12/18 06:20:05;;;;;;;16.20;15.50;;;1.10;99.90;;;;;;5054273;28;20487;-69
2023/12/18 06:22:33;;;;;;;16.07;15.37;;;1.10;99.90;;;;;;5058383;28;20489;-69
2023/12/18 06:25:04;;;;;;;16.50;15.80;;;1.10;99.90;;;;;;5065608;28;20580;-69
2023/12/18 06:27:31;;;;;;;17.50;16.70;;;1.10;99.90;;;;;;5064306;28;20953;-69
2023/12/18 06:29:58;;;;;;;16.80;16.10;;;1.10;99.90;;;;;;5061290;28;20942;-69
2023/12/18 06:32:25;;;;;;;17.00;16.23;;;1.20;99.90;;;;;;5061524;28;20509;-69
2023/12/18 06:34:52;;;;;;;16.43;15.73;;;1.20;99.90;;;;;;5063195;28;20935;-69
2023/12/18 06:37:19;;;;;;;17.20;16.40;;;1.10;99.90;;;;;;5054170;28;20470;-69
2023/12/18 06:39:47;;;;;;;17.13;16.33;;;1.10;99.90;;;;;;5052560;28;20500;-69
2023/12/18 06:42:15;;;;;;;16.60;15.90;;;1.00;99.90;;;;;;5063977;28;20540;-69
2023/12/18 06:44:42;;;;;;;17.00;16.30;;;1.10;99.90;;;;;;5056904;28;20934;-69
2023/12/18 06:47:09;;;;;;;16.43;15.73;;;1.10;99.90;;;;;;5058038;28;20464;-69
2023/12/18 06:49:36;;;;;;;16.20;15.50;;;1.20;99.90;;;;;;5058270;28;20469;-69
2023/12/18 06:52:03;;;;;;;17.13;16.33;;;1.30;99.90;;;;;;5063474;28;20829;-69
2023/12/18 06:54:30;;;;;;;16.53;15.83;;;1.40;99.90;;;;;;5055983;28;20468;-69
2023/12/18 06:56:57;;;;;;;16.80;16.10;;;1.60;99.90;;;;;;5058674;28;20485;-69
2023/12/18 06:59:25;;;;;;;16.77;16.07;;;1.80;99.90;;;;;;5066857;28;20499;-69
2023/12/18 07:01:52;;;;;;;16.10;15.40;;;2.00;99.90;;;;;;5061681;28;20442;-69
2023/12/18 07:04:19;;;;;;;16.50;15.80;;;2.20;99.90;;;;;;5054612;28;20850;-69
2023/12/18 07:06:46;;;;;;;15.63;15.03;;;2.30;99.90;;;;;;5065762;28;20512;-69
2023/12/18 07:09:13;;;;;;;16.50;15.80;;;2.40;99.90;;;;;;5060520;28;20981;-69
2023/12/18 07:11:40;;;;;;;15.87;15.20;;;2.50;99.90;;;;;;5066498;28;20807;-69
2023/12/18 07:14:07;;;;;;;15.60;15.00;;;2.60;99.90;;;;;;5066649;28;20480;-69
2023/12/18 07:16:36;;;;;;;15.10;14.50;;;2.60;99.90;;;;;;5064409;28;20454;-69
2023/12/18 07:19:03;;;;;;;15.37;14.77;;;2.80;99.90;;;;;;5056536;28;20594;-69
2023/12/18 07:21:30;;;;;;;14.90;14.30;;;2.80;99.90;;;;;;5062065;28;20472;-69
2023/12/18 07:23:57;;;;;;;14.37;13.87;;;2.80;99.90;;;;;;5059467;28;20527;-69
2023/12/18 07:26:24;;;;;;;14.93;14.33;;;2.90;99.90;;;;;;5064409;28;20464;-69
2023/12/18 07:28:50;;;;;;;15.20;14.60;;;2.90;99.90;;;;;;5056116;28;20469;-69
2023/12/18 07:31:19;;;;;;;15.00;14.40;;;2.90;99.90;;;;;;5060335;28;20470;-70
2023/12/18 07:33:48;;;;;;;13.93;13.43;;;3.10;99.90;;;;;;5065768;28;20532;-70
2023/12/18 07:36:14;;;;;;;13.40;13.00;;;3.20;99.90;;;;;;5062639;28;20456;-70
2023/12/18 07:38:42;;;;;;;13.70;13.20;;;3.30;99.90;;;;;;5047006;28;20483;-69
2023/12/18 07:41:09;;;;;;;13.60;13.10;;;3.30;99.90;;;;;;5058675;28;20491;-70
2023/12/18 07:43:35;;;;;;;13.33;12.93;;;3.40;99.90;;;;;;5055335;28;20953;-69
2023/12/18 07:46:03;;;;;;;12.40;12.00;;;3.50;99.90;;;;;;5067515;28;20484;-69
2023/12/18 07:48:33;;;;;;;12.77;12.37;;;3.50;99.90;;;;;;5061242;28;20464;-69
2023/12/18 07:51:01;;;;;;;12.17;11.80;;;3.60;99.90;;;;;;5063447;28;21038;-69
2023/12/18 07:53:27;;;;;;;11.43;11.13;;;3.60;99.90;;;;;;5061949;28;20837;-70
2023/12/18 07:55:55;;;;;;;11.73;11.43;;;3.60;99.90;;;;;;5065207;28;20965;-69
2023/12/18 07:58:22;;;;;;;12.00;11.70;;;3.60;99.90;;;;;;5062880;28;21050;-69
2023/12/18 08:00:50;;;;;;;10.83;10.53;;;3.70;99.90;;;;;;5066740;28;20455;-69
2023/12/18 08:03:16;;;;;;;9.77;9.57;;;3.70;99.90;;;;;;5067808;28;20458;-69
2023/12/18 08:05:43;;;;;;;10.40;10.20;;;3.70;99.90;;;;;;5054950;28;20533;-69
2023/12/18 08:08:11;;;;;;;9.43;9.23;;;3.70;99.90;;;;;;5061781;28;20467;-69
2023/12/18 08:10:38;;;;;;;9.30;9.10;;;3.80;99.90;;;;;;5057553;28;20465;-69
2023/12/18 08:13:05;;;;;;;9.40;9.20;;;3.80;99.90;;;;;;5059612;28;20460;-70
2023/12/18 08:15:32;;;;;;;9.17;8.97;;;3.80;99.90;;;;;;5055436;28;20513;-70
2023/12/18 08:17:59;;;;;;;9.30;9.10;;;3.90;99.90;;;;;;5061240;28;20560;-70
2023/12/18 08:20:26;;;;;;;9.00;8.80;;;4.00;99.90;;;;;;5061051;28;20451;-69
2023/12/18 08:22:53;;;;;;;8.97;8.77;;;4.00;99.90;;;;;;5053709;28;20467;-69
2023/12/18 08:25:21;;;;;;;9.17;8.97;;;4.00;99.90;;;;;;5067514;28;20555;-69
2023/12/18 08:27:48;;;;;;;8.93;8.73;;;4.00;99.90;;;;;;5063303;28;20458;-70
2023/12/18 08:30:16;;;;;;;8.73;8.53;;;4.00;99.90;;;;;;5060656;28;20579;-70
2023/12/18 08:32:43;;;;;;;8.30;8.20;;;4.00;99.90;;;;;;5061816;28;20459;-70
2023/12/18 08:35:10;;;;;;;8.60;8.50;;;4.10;99.90;;;;;;5064237;28;20463;-70
2023/12/18 08:37:37;;;;;;;8.77;8.57;;;4.10;99.90;;;;;;5062365;28;20860;-70
2023/12/18 08:40:04;;;;;;;9.10;8.90;;;4.00;99.90;;;;;;5056642;28;20965;-70
2023/12/18 08:42:33;;;;;;;8.90;8.70;;;4.10;99.90;;;;;;5055831;28;20948;-69
2023/12/18 08:45:00;;;;;;;8.47;8.37;;;4.10;99.90;;;;;;5056728;28;20467;-69
2023/12/18 08:47:27;;;;;;;8.17;8.07;;;4.10;99.90;;;;;;5053525;28;20489;-70
2023/12/18 08:49:54;;;;;;;8.47;8.37;;;4.10;99.90;;;;;;5053828;28;20846;-70
2023/12/18 08:52:21;;;;;;;8.47;8.37;;;4.10;99.90;;;;;;5055113;28;20853;-69
2023/12/18 08:54:48;;;;;;;8.33;8.23;;;4.20;99.90;;;;;;5054894;28;20474;-70
2023/12/18 08:57:16;;;;;;;8.07;7.97;;;4.30;99.90;;;;;;5059086;28;20814;-70
2023/12/18 08:59:45;;;;;;;8.37;8.27;;;4.40;99.90;;;;;;5053311;28;20479;-69
2023/12/18 09:02:12;;;;;;;8.50;8.40;;;4.40;99.90;;;;;;5053706;28;20502;-71
2023/12/18 09:04:40;;;;;;;8.20;8.10;;;4.40;99.90;;;;;;5056297;28;22202;-70
2023/12/18 09:07:07;;;;;;;7.13;7.03;;;4.40;99.90;;;;;;5059425;28;20455;-71
2023/12/18 09:09:36;;;;;;;6.93;6.83;;;4.40;99.90;;;;;;5063491;28;20528;-70
2023/12/18 09:12:03;;;;;;;6.47;6.37;;;4.40;99.90;;;;;;5059340;28;20457;-71
2023/12/18 09:14:30;;;;;;;7.10;7.00;;;4.50;99.90;;;;;;5063163;28;20890;-70
2023/12/18 09:16:58;;;;;;;6.63;6.53;;;4.50;99.90;;;;;;5057757;28;20852;-70
2023/12/18 09:19:27;;;;;;;6.47;6.37;;;4.60;99.90;;;;;;5061254;28;20490;-71
2023/12/18 09:21:54;;;;;;;6.87;6.77;;;4.70;99.90;;;;;;5056289;28;20894;-70
2023/12/18 09:24:21;;;;;;;6.43;6.33;;;4.70;99.90;;;;;;5065143;28;20803;-71
2023/12/18 09:26:48;;;;;;;6.97;6.87;;;4.80;99.90;;;;;;5063419;28;20956;-70
2023/12/18 09:29:15;;;;;;;7.27;7.17;;;4.80;99.90;;;;;;5064671;28;20465;-71
2023/12/18 09:31:42;;;;;;;7.00;6.90;;;4.80;99.90;;;;;;5056695;28;20532;-70
2023/12/18 09:34:10;;;;;;;6.77;6.67;;;4.90;99.90;;;;;;5068361;28;20464;-70
2023/12/18 09:36:37;;;;;;;7.30;7.20;;;5.00;99.90;;;;;;5061578;28;20466;-70
2023/12/18 09:39:05;;;;;;;7.50;7.40;;;5.10;99.90;;;;;;5067476;28;20498;-70
2023/12/18 09:41:31;;;;;;;7.43;7.33;;;5.10;99.90;;;;;;5065699;28;20455;-70
2023/12/18 09:44:00;;;;;;;7.50;7.40;;;5.10;99.90;;;;;;5067789;28;20772;-70
2023/12/18 09:46:27;;;;;;;7.20;7.10;;;5.00;99.90;;;;;;5060687;28;20833;-70
2023/12/18 09:48:55;;;;;;;7.00;6.90;;;5.10;99.90;;;;;;5059915;28;20467;-69
2023/12/18 09:51:24;;;;;;;6.80;6.70;;;5.10;99.90;;;;;;5059565;28;20746;-70
2023/12/18 09:53:52;;;;;;;6.50;6.40;;;5.20;99.90;;;;;;5067094;28;20561;-70
2023/12/18 09:56:21;;;;;;;6.67;6.57;;;5.30;99.90;;;;;;5064608;28;20494;-70
2023/12/18 09:58:48;;;;;;;7.20;7.10;;;5.30;99.90;;;;;;5055943;28;21080;-70
2023/12/18 10:01:16;;;;;;;6.90;6.80;;;5.30;99.90;;;;;;5060868;28;20463;-70
2023/12/18 10:03:43;;;;;;;6.40;6.30;;;5.30;99.90;;;;;;5059238;28;20470;-70
2023/12/18 10:06:10;;;;;;;7.00;6.90;;;5.10;99.90;;;;;;5061602;28;20451;-71
2023/12/18 10:08:39;;;;;;;6.47;6.37;;;5.10;99.90;;;;;;5058669;28;20477;-71
2023/12/18 10:11:06;;;;;;;6.70;6.60;;;5.10;99.90;;;;;;5059342;28;20476;-70
2023/12/18 10:13:37;;;;;;;7.13;7.03;;;5.20;99.90;;;;;;5066446;28;20452;-70
2023/12/18 10:16:05;;;;;;;6.13;6.03;;;5.20;99.90;;;;;;5064978;28;20443;-70
2023/12/18 10:18:33;;;;;;;6.70;6.60;;;5.20;99.90;;;;;;5059331;28;20527;-70
2023/12/18 10:21:01;;;;;;;6.83;6.73;;;5.20;99.90;;;;;;5062019;28;20826;-70
2023/12/18 10:23:35;;;;;;;7.10;7.00;;;5.30;99.90;;;;;;5066332;28;20503;-70
2023/12/18 10:26:05;;;;;;;7.23;7.13;;;5.30;99.90;;;;;;5055533;28;20917;-71
2023/12/18 10:28:33;;;;;;;6.87;6.77;;;5.30;99.90;;;;;;5066572;28;20447;-71
2023/12/18 10:31:00;;;;;;;7.43;7.33;;;5.40;99.90;;;;;;5058914;28;20478;-70
2023/12/18 10:36:10;;;;;;;7.40;7.30;;;5.40;99.90;;;;;;5053669;28;20494;-71
2023/12/18 10:38:39;;;;;;;6.60;6.50;;;5.50;99.90;;;;;;5061298;28;20555;-71
2023/12/18 10:41:09;;;;;;;7.50;7.40;;;5.30;99.90;;;;;;5056602;28;20460;-71
2023/12/18 10:43:39;;;;;;;7.80;7.70;;;5.40;99.90;;;;;;5052761;28;20470;-71
2023/12/18 10:46:06;;;;;;;7.20;7.10;;;5.50;99.90;;;;;;5060918;28;20841;-71
2023/12/18 10:48:34;;;;;;;7.70;7.60;;;5.50;99.90;;;;;;5052555;28;20459;-71
2023/12/18 10:51:03;;;;;;;7.43;7.33;;;5.50;99.90;;;;;;5065070;28;20844;-70
2023/12/18 10:53:34;;;;;;;7.20;7.10;;;5.50;99.90;;;;;;5062150;28;20463;-71
2023/12/18 10:56:04;;;;;;;7.33;7.23;;;5.60;99.90;;;;;;5056931;28;20920;-71
2023/12/18 10:58:32;;;;;;;7.43;7.33;;;5.60;99.90;;;;;;5056377;28;20456;-71
2023/12/18 11:01:00;;;;;;;7.63;7.53;;;5.60;99.90;;;;;;5057105;28;20463;-70
2023/12/18 11:03:28;;;;;;;7.43;7.33;;;5.50;99.90;;;;;;5068777;28;20460;-71
2023/12/18 11:05:56;;;;;;;7.50;7.40;;;5.60;99.90;;;;;;5066735;28;20455;-69
2023/12/18 11:08:24;;;;;;;7.50;7.40;;;5.70;99.90;;;;;;5065186;28;20474;-70
2023/12/18 11:10:52;;;;;;;7.70;7.60;;;5.80;99.90;;;;;;5065746;28;20785;-69
2023/12/18 11:13:26;;;;;;;8.03;7.93;;;5.70;99.90;;;;;;5043938;28;20456;-70
2023/12/18 11:16:06;;;;;;;7.27;7.17;;;5.80;99.90;;;;;;5063754;28;20469;-70
2023/12/18 11:18:46;;;;;;;7.50;7.40;;;5.80;99.90;;;;;;5055785;28;20496;-69
2023/12/18 11:21:13;;;;;;;7.83;7.73;;;5.70;99.90;;;;;;5060687;28;20512;-69
2023/12/18 11:23:40;;;;;;;8.67;8.57;;;5.80;99.90;;;;;;5069348;28;20483;-70
2023/12/18 11:26:10;;;;;;;8.40;8.30;;;5.80;99.90;;;;;;5066573;28;20467;-70
2023/12/18 11:28:36;;;;;;;8.00;7.90;;;5.90;99.90;;;;;;5070375;28;20555;-69
2023/12/18 11:31:06;;;;;;;8.20;8.10;;;5.80;99.90;;;;;;5065684;28;20993;-70
2023/12/18 11:33:33;;;;;;;7.80;7.70;;;5.80;99.90;;;;;;5069227;28;20481;-71
2023/12/18 11:36:02;;;;;;;7.87;7.77;;;5.80;99.90;;;;;;5067637;28;20978;-71
2023/12/18 11:38:29;;;;;;;8.00;7.90;;;5.80;99.90;;;;;;5065259;28;20546;-70
2023/12/18 11:40:57;;;;;;;7.70;7.60;;;5.80;99.90;;;;;;5063691;28;20594;-71
2023/12/18 11:43:38;;;;;;;8.40;8.30;;;5.90;99.90;;;;;;5073147;28;20542;-70
2023/12/18 11:46:08;;;;;;;8.00;7.90;;;5.90;99.90;;;;;;5066594;28;20470;-70
2023/12/18 11:48:35;;;;;;;8.20;8.10;;;5.80;99.90;;;;;;5067554;28;20557;-69
2023/12/18 11:51:05;;;;;;;7.53;7.43;;;5.80;99.90;;;;;;5067917;28;20455;-69
2023/12/18 11:53:34;;;;;;;8.17;8.07;;;5.90;99.90;;;;;;5063635;28;21038;-71
2023/12/18 11:56:06;;;;;;;8.00;7.90;;;5.90;99.90;;;;;;5064741;28;20462;-70
2023/12/18 11:58:36;;;;;;;8.20;8.10;;;6.00;99.90;;;;;;5064293;28;20475;-71
2023/12/18 12:01:03;;;;;;;8.20;8.10;;;5.90;99.90;;;;;;5059621;28;20988;-69
2023/12/18 12:03:32;;;;;;;8.40;8.30;;;5.90;99.90;;;;;;5066139;28;20568;-71
2023/12/18 12:06:00;;;;;;;8.40;8.30;;;5.90;99.90;;;;;;5055831;28;20968;-71
2023/12/18 12:08:27;;;;;;;8.30;8.20;;;5.80;99.90;;;;;;5064267;28;20804;-69
2023/12/18 12:10:56;;;;;;;8.30;8.20;;;5.90;99.90;;;;;;5063844;28;20455;-70
2023/12/18 12:13:24;;;;;;;8.23;8.13;;;5.90;99.90;;;;;;5067904;28;20455;-70
2023/12/18 12:15:55;;;;;;;8.40;8.30;;;6.00;99.90;;;;;;5069725;28;20469;-70
2023/12/18 12:18:22;;;;;;;8.40;8.30;;;6.00;99.90;;;;;;5066511;28;20489;-69
2023/12/18 12:20:50;;;;;;;8.70;8.60;;;6.00;99.90;;;;;;5067421;28;20487;-71
2023/12/18 12:23:17;;;;;;;9.20;9.00;;;6.00;99.90;;;;;;5059624;28;20847;-71
2023/12/18 12:25:46;;;;;;;8.90;8.70;;;5.90;99.90;;;;;;5060438;28;20467;-70
2023/12/18 12:28:13;;;;;;;8.70;8.60;;;6.00;99.90;;;;;;5057719;28;20816;-71
2023/12/18 12:30:41;;;;;;;8.50;8.40;;;5.90;99.90;;;;;;5055031;28;20479;-70
2023/12/18 12:33:08;;;;;;;8.10;8.00;;;5.90;99.90;;;;;;5060149;28;20830;-71
2023/12/18 12:35:35;;;;;;;8.77;8.60;;;5.80;99.90;;;;;;5057577;28;20468;-70
2023/12/18 12:38:05;;;;;;;8.87;8.67;;;5.80;99.90;;;;;;5055799;28;20526;-69
2023/12/18 12:40:39;;;;;;;9.20;9.00;;;5.80;99.90;;;;;;5055195;28;20991;-70
2023/12/18 12:43:06;;;;;;;9.10;8.90;;;5.90;99.90;;;;;;5052790;28;20509;-71
2023/12/18 12:45:33;;;;;;;8.83;8.63;;;6.00;99.90;;;;;;5069010;28;20480;-70
2023/12/18 12:48:00;;;;;;;9.63;9.43;;;5.90;99.90;;;;;;5062914;28;20454;-70